createdAt,value
2022-08-03T00:00:15.094Z,82.98
2022-08-03T00:01:15.013Z,83.49
2022-08-03T00:02:15.345Z,83.69
2022-08-03T00:03:15.061Z,83.35
2022-08-03T00:04:14.994Z,83.15
2022-08-03T00:05:14.991Z,82.95
2022-08-03T00:06:15.010Z,82.60
2022-08-03T00:07:14.962Z,82.26
2022-08-03T00:08:14.950Z,82.37
2022-08-03T00:09:14.972Z,82.17
2022-08-03T00:10:14.933Z,82.03
2022-08-03T00:11:14.894Z,82.23
2022-08-03T00:12:15.090Z,82.93
2022-08-03T00:13:14.866Z,82.63
2022-08-03T00:14:14.888Z,82.82
2022-08-03T00:15:15.050Z,83.63
2022-08-03T00:16:14.873Z,84.07
2022-08-03T00:17:14.821Z,83.97
2022-08-03T00:18:14.803Z,83.37
2022-08-03T00:19:14.805Z,83.23
2022-08-03T00:20:14.873Z,83.13
2022-08-03T00:21:14.800Z,83.13
2022-08-03T00:22:15.050Z,83.13
2022-08-03T00:23:15.025Z,83.03
2022-08-03T00:24:14.713Z,82.73
2022-08-03T00:25:14.713Z,82.63
2022-08-03T00:26:14.710Z,83.23
2022-08-03T00:27:16.592Z,83.73
2022-08-03T00:28:14.681Z,84.27
2022-08-03T00:29:14.656Z,85.27
2022-08-03T00:30:14.655Z,85.72
2022-08-03T00:31:14.705Z,86.62
2022-08-03T00:32:14.906Z,87.32
2022-08-03T00:33:14.626Z,87.73
2022-08-03T00:34:14.661Z,87.82
2022-08-03T00:35:36.988Z,88.02
2022-08-03T00:36:14.678Z,87.62
2022-08-03T00:37:14.554Z,87.38
2022-08-03T00:38:14.585Z,87.58
2022-08-03T00:39:14.558Z,87.78
2022-08-03T00:40:14.536Z,87.48
2022-08-03T00:41:15.659Z,87.08
2022-08-03T00:42:14.885Z,86.88
2022-08-03T00:43:14.489Z,86.68
2022-08-03T00:44:14.482Z,86.58
2022-08-03T00:45:15.482Z,87.18
2022-08-03T00:46:17.757Z,87.68
2022-08-03T00:47:14.445Z,88.18
2022-08-03T00:48:29.562Z,88.29
2022-08-03T00:49:14.518Z,87.88
2022-08-03T00:50:14.446Z,87.18
2022-08-03T00:51:14.376Z,86.88
2022-08-03T00:52:14.398Z,86.68
2022-08-03T00:53:14.365Z,86.33
2022-08-03T00:54:14.348Z,86.04
2022-08-03T00:55:14.343Z,85.53
2022-08-03T00:56:14.322Z,85.03
2022-08-03T00:57:14.276Z,84.93
2022-08-03T00:58:14.345Z,84.74
2022-08-03T00:59:14.274Z,85.03
2022-08-03T01:00:14.273Z,84.83
2022-08-03T01:01:14.329Z,84.83
2022-08-03T01:02:14.534Z,84.74
2022-08-03T01:03:14.205Z,84.97
2022-08-03T01:04:14.223Z,85.08
2022-08-03T01:05:14.204Z,85.68
2022-08-03T01:06:14.211Z,85.88
2022-08-03T01:07:14.160Z,85.78
2022-08-03T01:08:14.140Z,85.88
2022-08-03T01:09:14.183Z,85.88
2022-08-03T01:10:14.114Z,86.12
2022-08-03T01:11:14.137Z,85.72
2022-08-03T01:12:14.400Z,85.22
2022-08-03T01:14:03.501Z,85.16
2022-08-03T01:14:23.060Z,85.05
2022-08-03T01:15:14.088Z,85.56
2022-08-03T01:16:14.054Z,85.66
2022-08-03T01:17:14.095Z,85.75
2022-08-03T01:18:14.004Z,85.46
2022-08-03T01:19:14.013Z,85.05
2022-08-03T01:20:14.010Z,85.16
2022-08-03T01:21:13.981Z,85.10
2022-08-03T01:22:14.310Z,84.39
2022-08-03T01:23:13.986Z,84.39
2022-08-03T01:24:13.980Z,84.83
2022-08-03T01:25:13.948Z,85.64
2022-08-03T01:26:13.925Z,86.85
2022-08-03T01:27:13.924Z,86.94
2022-08-03T01:28:13.884Z,87.45
2022-08-03T01:29:13.896Z,88.05
2022-08-03T01:30:13.847Z,88.21
2022-08-03T01:31:13.889Z,88.51
2022-08-03T01:33:00.248Z,88.61
2022-08-03T01:33:13.816Z,88.71
2022-08-03T01:34:14.738Z,88.51
2022-08-03T01:35:13.802Z,87.60
2022-08-03T01:36:13.777Z,86.80
2022-08-03T01:37:13.790Z,86.36
2022-08-03T01:38:13.785Z,86.26
2022-08-03T01:39:13.734Z,85.96
2022-08-03T01:40:13.735Z,85.46
2022-08-03T01:41:13.722Z,85.66
2022-08-03T01:42:14.155Z,85.96
2022-08-03T01:43:14.483Z,85.96
2022-08-03T01:44:30.046Z,85.75
2022-08-03T01:45:13.665Z,85.66
2022-08-03T01:46:13.642Z,85.36
2022-08-03T01:47:13.662Z,85.02
2022-08-03T01:48:13.645Z,84.31
2022-08-03T01:49:13.689Z,84.01
2022-08-03T01:50:13.628Z,83.87
2022-08-03T01:51:13.586Z,83.77
2022-08-03T01:52:13.684Z,83.67
2022-08-03T01:53:13.572Z,83.67
2022-08-03T01:54:13.550Z,83.67
2022-08-03T01:55:13.515Z,83.37
2022-08-03T01:56:13.508Z,83.27
2022-08-03T01:57:13.508Z,83.17
2022-08-03T01:58:13.511Z,83.17
2022-08-03T01:59:13.492Z,83.07
2022-08-03T02:00:13.490Z,82.97
2022-08-03T02:01:13.504Z,82.82
2022-08-03T02:02:28.812Z,82.73
2022-08-03T02:03:13.444Z,82.73
2022-08-03T02:04:13.431Z,82.73
2022-08-03T02:05:13.424Z,82.63
2022-08-03T02:07:02.103Z,82.63
2022-08-03T02:07:13.402Z,82.76
2022-08-03T02:08:13.391Z,83.17
2022-08-03T02:09:13.364Z,83.81
2022-08-03T02:10:13.333Z,84.65
2022-08-03T02:11:13.330Z,85.25
2022-08-03T02:12:13.413Z,85.80
2022-08-03T02:13:13.304Z,86.30
2022-08-03T02:14:13.299Z,86.94
2022-08-03T02:15:13.296Z,87.35
2022-08-03T02:16:13.275Z,87.35
2022-08-03T02:17:13.237Z,87.15
2022-08-03T02:18:13.241Z,86.94
2022-08-03T02:19:13.232Z,86.74
2022-08-03T02:20:13.200Z,86.74
2022-08-03T02:21:13.206Z,86.65
2022-08-03T02:22:13.413Z,87.04
2022-08-03T02:23:13.182Z,87.15
2022-08-03T02:24:13.174Z,87.45
2022-08-03T02:25:13.213Z,87.69
2022-08-03T02:26:13.213Z,87.08
2022-08-03T02:27:13.134Z,86.99
2022-08-03T02:28:13.084Z,86.68
2022-08-03T02:29:13.073Z,87.08
2022-08-03T02:30:13.078Z,87.39
2022-08-03T02:31:13.074Z,86.38
2022-08-03T02:32:13.227Z,85.58
2022-08-03T02:33:13.024Z,85.14
2022-08-03T02:34:13.052Z,85.14
2022-08-03T02:35:13.007Z,85.03
2022-08-03T02:36:13.038Z,84.99
2022-08-03T02:37:13.020Z,84.80
2022-08-03T02:38:12.972Z,84.19
2022-08-03T02:39:12.950Z,83.85
2022-08-03T02:40:12.973Z,83.65
2022-08-03T02:41:12.914Z,83.25
2022-08-03T02:42:13.024Z,83.45
2022-08-03T02:43:12.925Z,83.65
2022-08-03T02:44:12.908Z,83.95
2022-08-03T02:45:12.862Z,84.05
2022-08-03T02:46:12.865Z,84.15
2022-08-03T02:47:12.843Z,84.35
2022-08-03T02:48:12.885Z,84.45
2022-08-03T02:49:41.397Z,84.55
2022-08-03T02:50:12.818Z,84.55
2022-08-03T02:51:12.780Z,84.65
2022-08-03T02:52:15.486Z,84.55
2022-08-03T02:53:12.795Z,84.45
2022-08-03T02:54:12.767Z,84.55
2022-08-03T02:55:12.743Z,84.25
2022-08-03T02:56:12.767Z,84.35
2022-08-03T02:57:12.736Z,84.49
2022-08-03T02:58:12.705Z,84.69
2022-08-03T02:59:12.729Z,84.80
2022-08-03T03:00:12.704Z,84.99
2022-08-03T03:01:12.691Z,84.99
2022-08-03T03:02:12.710Z,84.89
2022-08-03T03:03:12.648Z,84.80
2022-08-03T03:04:12.645Z,84.80
2022-08-03T03:05:52.375Z,84.89
2022-08-03T03:06:12.613Z,85.10
2022-08-03T03:07:12.583Z,85.33
2022-08-03T03:08:17.718Z,85.53
2022-08-03T03:09:12.563Z,85.84
2022-08-03T03:10:12.575Z,86.24
2022-08-03T03:11:12.604Z,86.79
2022-08-03T03:12:12.524Z,87.19
2022-08-03T03:13:12.527Z,87.73
2022-08-03T03:14:12.485Z,88.03
2022-08-03T03:15:12.485Z,88.23
2022-08-03T03:16:12.495Z,88.34
2022-08-03T03:17:12.454Z,88.58
2022-08-03T03:18:12.477Z,88.68
2022-08-03T03:19:12.424Z,88.58
2022-08-03T03:20:12.409Z,87.98
2022-08-03T03:21:12.418Z,87.37
2022-08-03T03:22:12.434Z,86.83
2022-08-03T03:23:12.378Z,85.52
2022-08-03T03:24:12.368Z,85.36
2022-08-03T03:25:12.340Z,85.56
2022-08-03T03:26:12.361Z,85.46
2022-08-03T03:27:12.358Z,85.46
2022-08-03T03:28:12.328Z,85.66
2022-08-03T03:29:12.341Z,86.16
2022-08-03T03:30:12.332Z,86.57
2022-08-03T03:31:12.258Z,86.77
2022-08-03T03:32:12.296Z,86.97
2022-08-03T03:33:12.252Z,87.11
2022-08-03T03:34:12.258Z,87.62
2022-08-03T03:35:12.207Z,87.82
2022-08-03T03:36:12.208Z,88.02
2022-08-03T03:37:12.220Z,88.22
2022-08-03T03:38:12.186Z,88.22
2022-08-03T03:39:15.317Z,88.02
2022-08-03T03:40:12.161Z,87.67
2022-08-03T03:41:12.137Z,87.47
2022-08-03T03:42:12.154Z,87.47
2022-08-03T03:43:12.113Z,87.47
2022-08-03T03:44:12.129Z,87.07
2022-08-03T03:45:12.096Z,86.77
2022-08-03T03:46:12.102Z,86.72
2022-08-03T03:47:12.053Z,86.52
2022-08-03T03:48:12.083Z,86.02
2022-08-03T03:49:12.105Z,85.78
2022-08-03T03:50:12.031Z,85.92
2022-08-03T03:51:12.035Z,86.12
2022-08-03T03:52:12.050Z,86.52
2022-08-03T03:53:12.042Z,86.77
2022-08-03T03:54:12.007Z,86.57
2022-08-03T03:55:11.975Z,86.61
2022-08-03T03:56:11.942Z,87.11
2022-08-03T03:57:12.959Z,87.41
2022-08-03T03:58:11.918Z,87.85
2022-08-03T03:59:11.908Z,87.85
2022-08-03T04:00:11.930Z,87.85
2022-08-03T04:01:11.924Z,87.62
2022-08-03T04:02:11.926Z,87.51
2022-08-03T04:03:11.852Z,87.21
2022-08-03T04:04:11.831Z,87.11
2022-08-03T04:05:11.895Z,87.01
2022-08-03T04:06:11.804Z,87.01
2022-08-03T04:07:11.788Z,87.11
2022-08-03T04:08:11.803Z,87.31
2022-08-03T04:09:11.769Z,87.51
2022-08-03T04:10:14.801Z,87.62
2022-08-03T04:11:11.757Z,87.71
2022-08-03T04:12:11.736Z,87.71
2022-08-03T04:13:11.763Z,87.71
2022-08-03T04:14:11.711Z,87.71
2022-08-03T04:15:11.681Z,87.82
2022-08-03T04:16:11.706Z,87.92
2022-08-03T04:17:11.678Z,87.92
2022-08-03T04:18:11.661Z,87.92
2022-08-03T04:19:11.640Z,88.12
2022-08-03T04:20:11.639Z,88.32
2022-08-03T04:21:11.677Z,88.56
2022-08-03T04:22:11.644Z,88.76
2022-08-03T04:23:14.199Z,88.86
2022-08-03T04:24:11.579Z,88.96
2022-08-03T04:25:11.588Z,88.96
2022-08-03T04:26:11.575Z,88.52
2022-08-03T04:27:11.554Z,88.12
2022-08-03T04:28:29.497Z,87.41
2022-08-03T04:29:11.515Z,86.77
2022-08-03T04:30:11.516Z,86.26
2022-08-03T04:31:11.526Z,86.16
2022-08-03T04:32:11.538Z,85.66
2022-08-03T04:33:11.458Z,85.56
2022-08-03T04:34:11.460Z,85.76
2022-08-03T04:35:11.475Z,86.06
2022-08-03T04:36:11.434Z,86.16
2022-08-03T04:37:11.427Z,86.30
2022-08-03T04:38:11.409Z,86.51
2022-08-03T04:39:11.412Z,86.71
2022-08-03T04:40:11.368Z,87.11
2022-08-03T04:41:11.364Z,87.62
2022-08-03T04:42:11.374Z,87.82
2022-08-03T04:43:11.354Z,87.92
2022-08-03T04:44:11.403Z,87.92
2022-08-03T04:45:11.311Z,87.82
2022-08-03T04:46:11.297Z,87.27
2022-08-03T04:47:11.326Z,86.97
2022-08-03T04:48:11.365Z,86.66
2022-08-03T04:49:11.380Z,86.52
2022-08-03T04:50:13.549Z,86.22
2022-08-03T04:51:11.226Z,86.02
2022-08-03T04:52:11.248Z,85.58
2022-08-03T04:53:11.223Z,85.17
2022-08-03T04:54:11.216Z,84.88
2022-08-03T04:55:11.630Z,84.57
2022-08-03T04:56:11.151Z,84.37
2022-08-03T04:57:11.178Z,84.27
2022-08-03T04:58:11.184Z,84.13
2022-08-03T04:59:11.145Z,84.23
2022-08-03T05:00:11.152Z,84.23
2022-08-03T05:01:11.132Z,84.23
2022-08-03T05:02:11.274Z,84.13
2022-08-03T05:03:23.612Z,83.63
2022-08-03T05:04:11.086Z,83.33
2022-08-03T05:05:11.070Z,83.43
2022-08-03T05:06:11.759Z,83.43
2022-08-03T05:07:11.655Z,83.09
2022-08-03T05:08:11.342Z,82.89
2022-08-03T05:09:10.989Z,82.78
2022-08-03T05:10:14.771Z,82.78
2022-08-03T05:11:10.977Z,82.68
2022-08-03T05:12:10.952Z,82.58
2022-08-03T05:13:10.960Z,82.48
2022-08-03T05:14:10.919Z,82.68
2022-08-03T05:15:10.939Z,82.68
2022-08-03T05:16:10.917Z,82.89
2022-08-03T05:17:10.961Z,82.98
2022-08-03T05:18:14.253Z,82.98
2022-08-03T05:19:10.888Z,82.98
2022-08-03T05:20:10.852Z,82.89
2022-08-03T05:21:10.846Z,82.64
2022-08-03T05:22:10.830Z,82.34
2022-08-03T05:23:10.855Z,81.94
2022-08-03T05:24:10.821Z,81.94
2022-08-03T05:25:17.795Z,81.84
2022-08-03T05:26:10.788Z,81.84
2022-08-03T05:27:10.738Z,81.64
2022-08-03T05:28:10.782Z,81.34
2022-08-03T05:29:11.118Z,81.94
2022-08-03T05:30:31.203Z,81.94
2022-08-03T05:31:10.703Z,81.74
2022-08-03T05:32:10.706Z,81.54
2022-08-03T05:33:10.672Z,81.44
2022-08-03T05:34:10.690Z,81.64
2022-08-03T05:36:00.495Z,82.34
2022-08-03T05:36:10.633Z,82.54
2022-08-03T05:37:10.644Z,82.45
2022-08-03T05:38:10.634Z,82.24
2022-08-03T05:39:10.636Z,82.20
2022-08-03T05:40:10.581Z,81.90
2022-08-03T05:41:20.532Z,81.70
2022-08-03T05:42:10.581Z,81.50
2022-08-03T05:43:10.547Z,81.60
2022-08-03T05:44:10.555Z,81.70
2022-08-03T05:45:10.527Z,81.40
2022-08-03T05:46:12.915Z,80.90
2022-08-03T05:47:10.524Z,81.10
2022-08-03T05:48:10.549Z,81.10
2022-08-03T05:49:11.246Z,80.80
2022-08-03T05:50:10.463Z,80.56
2022-08-03T05:51:10.514Z,80.26
2022-08-03T05:52:15.742Z,80.26
2022-08-03T05:53:10.491Z,79.86
2022-08-03T05:54:10.438Z,80.26
2022-08-03T05:55:10.398Z,80.76
2022-08-03T05:56:13.714Z,80.96
2022-08-03T05:57:10.376Z,80.76
2022-08-03T05:58:10.350Z,81.16
2022-08-03T05:59:35.733Z,81.06
2022-08-03T06:00:10.380Z,81.16
2022-08-03T06:01:10.415Z,81.26
2022-08-03T06:02:10.319Z,81.36
2022-08-03T06:03:10.284Z,81.26
2022-08-03T06:04:10.282Z,81.56
2022-08-03T06:05:10.245Z,81.67
2022-08-03T06:06:10.238Z,81.16
2022-08-03T06:07:10.242Z,81.06
2022-08-03T06:08:10.222Z,80.86
2022-08-03T06:09:10.214Z,79.96
2022-08-03T06:10:36.753Z,79.96
2022-08-03T06:11:10.204Z,80.06
2022-08-03T06:12:14.048Z,80.66
2022-08-03T06:13:10.188Z,80.46
2022-08-03T06:14:10.131Z,80.26
2022-08-03T06:15:11.393Z,80.06
2022-08-03T06:16:10.148Z,79.66
2022-08-03T06:17:10.116Z,79.46
2022-08-03T06:18:10.090Z,79.86
2022-08-03T06:19:10.072Z,79.55
2022-08-03T06:20:10.066Z,79.62
2022-08-03T06:21:15.224Z,79.52
2022-08-03T06:22:10.150Z,79.52
2022-08-03T06:23:16.257Z,79.02
2022-08-03T06:24:10.002Z,78.31
2022-08-03T06:25:13.008Z,78.31
2022-08-03T06:26:10.014Z,78.18
2022-08-03T06:27:09.987Z,77.98
2022-08-03T06:28:19.092Z,77.48
2022-08-03T06:29:10.059Z,76.47
2022-08-03T06:30:09.995Z,76.98
2022-08-03T06:31:10.031Z,76.87
2022-08-03T06:32:09.969Z,76.17
2022-08-03T06:33:09.883Z,76.43
2022-08-03T06:34:35.108Z,77.14
2022-08-03T06:35:09.887Z,76.04
2022-08-03T06:36:09.866Z,75.34
2022-08-03T06:37:09.863Z,75.23
2022-08-03T06:38:09.829Z,75.23
2022-08-03T06:39:09.827Z,74.43
2022-08-03T06:40:09.799Z,74.13
2022-08-03T06:41:09.773Z,73.90
2022-08-03T06:42:09.959Z,74.10
2022-08-03T06:43:12.644Z,75.00
2022-08-03T06:44:10.426Z,75.20
2022-08-03T06:45:09.735Z,75.20
2022-08-03T06:46:09.770Z,74.80
2022-08-03T06:47:09.725Z,75.30
2022-08-03T06:48:09.723Z,74.80
2022-08-03T06:49:09.742Z,75.10
2022-08-03T06:50:17.067Z,75.00
2022-08-03T06:51:09.671Z,75.10
2022-08-03T06:52:09.659Z,75.20
2022-08-03T06:53:09.649Z,75.37
2022-08-03T06:54:09.632Z,74.76
2022-08-03T06:55:09.621Z,74.56
2022-08-03T06:56:09.618Z,73.36
2022-08-03T06:57:09.613Z,72.56
2022-08-03T06:58:09.588Z,72.86
2022-08-03T06:59:09.543Z,72.53
2022-08-03T07:00:13.344Z,72.63
2022-08-03T07:01:09.622Z,72.53
2022-08-03T07:02:09.590Z,73.72
2022-08-03T07:03:09.475Z,73.03
2022-08-03T07:04:09.480Z,73.13
2022-08-03T07:05:09.455Z,72.83
2022-08-03T07:06:09.495Z,72.42
2022-08-03T07:07:09.467Z,72.23
2022-08-03T07:08:09.449Z,72.72
2022-08-03T07:09:09.436Z,72.19
2022-08-03T07:10:09.402Z,71.49
2022-08-03T07:11:09.424Z,73.99
2022-08-03T07:12:09.412Z,73.59
2022-08-03T07:13:09.389Z,73.59
2022-08-03T07:14:09.334Z,73.69
2022-08-03T07:15:09.335Z,73.39
2022-08-03T07:16:09.326Z,73.09
2022-08-03T07:17:11.750Z,73.19
2022-08-03T07:18:09.303Z,72.66
2022-08-03T07:19:09.304Z,72.86
2022-08-03T07:20:09.278Z,71.86
2022-08-03T07:21:09.286Z,71.26
2022-08-03T07:22:09.308Z,71.66
2022-08-03T07:23:09.240Z,71.66
2022-08-03T07:24:09.259Z,71.42
2022-08-03T07:25:09.229Z,71.12
2022-08-03T07:26:09.189Z,71.42
2022-08-03T07:27:09.217Z,71.33
2022-08-03T07:28:09.180Z,72.72
2022-08-03T07:29:11.457Z,71.72
2022-08-03T07:30:09.159Z,70.03
2022-08-03T07:31:09.121Z,71.62
2022-08-03T07:32:09.238Z,71.33
2022-08-03T07:33:09.150Z,72.19
2022-08-03T07:34:09.122Z,71.69
2022-08-03T07:35:09.095Z,71.89
2022-08-03T07:36:09.078Z,71.49
2022-08-03T07:37:09.060Z,71.69
2022-08-03T07:38:09.055Z,71.29
2022-08-03T07:39:15.912Z,70.59
2022-08-03T07:40:09.059Z,70.76
2022-08-03T07:41:09.007Z,69.13
2022-08-03T07:42:08.998Z,68.00
2022-08-03T07:43:08.978Z,67.70
2022-08-03T07:44:08.971Z,64.78
2022-08-03T07:45:08.963Z,65.61
2022-08-03T07:46:08.950Z,66.31
2022-08-03T07:47:09.172Z,65.78
2022-08-03T07:48:12.344Z,64.25
2022-08-03T07:49:08.998Z,64.25
2022-08-03T07:50:08.969Z,62.56
2022-08-03T07:51:08.874Z,64.95
2022-08-03T07:52:08.886Z,64.55
2022-08-03T07:53:08.907Z,63.69
2022-08-03T07:54:08.840Z,64.75
2022-08-03T07:55:08.843Z,63.76
2022-08-03T07:56:11.234Z,62.63
2022-08-03T07:57:08.803Z,64.72
2022-08-03T07:58:08.827Z,61.94
2022-08-03T07:59:08.768Z,62.13
2022-08-03T08:00:09.165Z,63.33
2022-08-03T08:01:08.801Z,62.30
2022-08-03T08:02:08.781Z,61.21
2022-08-03T08:03:08.775Z,61.18
2022-08-03T08:04:08.782Z,61.15
2022-08-03T08:05:08.719Z,59.93
2022-08-03T08:06:08.720Z,59.61
2022-08-03T08:07:08.662Z,58.95
2022-08-03T08:08:08.652Z,58.36
2022-08-03T08:09:08.670Z,57.44
2022-08-03T08:10:08.642Z,57.24
2022-08-03T08:11:08.612Z,58.56
2022-08-03T08:12:15.369Z,58.65
2022-08-03T08:13:08.610Z,58.16
2022-08-03T08:14:08.595Z,58.65
2022-08-03T08:15:08.601Z,58.95
2022-08-03T08:16:08.557Z,58.98
2022-08-03T08:17:08.534Z,59.18
2022-08-03T08:18:08.596Z,57.50
2022-08-03T08:19:08.542Z,58.39
2022-08-03T08:20:08.514Z,59.38
2022-08-03T08:21:08.712Z,60.54
2022-08-03T08:22:08.468Z,58.33
2022-08-03T08:23:10.240Z,56.92
2022-08-03T08:24:13.387Z,55.70
2022-08-03T08:25:08.452Z,55.58
2022-08-03T08:26:08.429Z,56.07
2022-08-03T08:27:08.407Z,56.46
2022-08-03T08:28:30.891Z,55.65
2022-08-03T08:29:08.437Z,55.45
2022-08-03T08:30:11.524Z,55.05
2022-08-03T08:31:08.376Z,55.03
2022-08-03T08:32:08.396Z,56.61
2022-08-03T08:33:08.750Z,57.40
2022-08-03T08:34:08.380Z,57.50
2022-08-03T08:35:09.201Z,55.40
2022-08-03T08:36:12.029Z,55.60
2022-08-03T08:37:08.280Z,56.19
2022-08-03T08:38:08.260Z,54.78
2022-08-03T08:39:08.279Z,54.09
2022-08-03T08:40:08.284Z,54.46
2022-08-03T08:41:09.197Z,54.16
2022-08-03T08:42:08.220Z,54.28
2022-08-03T08:43:08.193Z,54.61
2022-08-03T08:44:08.237Z,54.71
2022-08-03T08:45:08.181Z,54.44
2022-08-03T08:46:08.285Z,54.83
2022-08-03T08:47:08.147Z,52.93
2022-08-03T08:48:08.530Z,53.10
2022-08-03T08:49:08.275Z,52.98
2022-08-03T08:50:27.100Z,50.98
2022-08-03T08:51:08.106Z,51.18
2022-08-03T08:52:25.181Z,50.56
2022-08-03T08:53:09.747Z,50.56
2022-08-03T08:54:08.146Z,51.67
2022-08-03T08:55:08.072Z,53.27
2022-08-03T08:56:08.061Z,50.61
2022-08-03T08:57:21.267Z,50.71
2022-08-03T08:58:08.040Z,49.92
2022-08-03T08:59:08.050Z,49.43
2022-08-03T09:00:07.995Z,47.85
2022-08-03T09:01:08.078Z,47.85
2022-08-03T09:02:07.996Z,49.92
2022-08-03T09:03:07.971Z,51.00
2022-08-03T09:04:07.925Z,49.40
2022-08-03T09:05:07.960Z,48.57
2022-08-03T09:06:07.956Z,48.94
2022-08-03T09:07:19.717Z,48.32
2022-08-03T09:08:07.937Z,46.92
2022-08-03T09:09:07.899Z,46.70
2022-08-03T09:10:12.527Z,46.97
2022-08-03T09:11:07.881Z,46.26
2022-08-03T09:12:35.330Z,44.79
2022-08-03T09:13:07.828Z,44.87
2022-08-03T09:14:07.831Z,45.97
2022-08-03T09:15:16.840Z,44.79
2022-08-03T09:16:07.800Z,44.18
2022-08-03T09:17:07.802Z,44.35
2022-08-03T09:18:07.763Z,44.84
2022-08-03T09:19:07.752Z,45.75
2022-08-03T09:20:07.738Z,45.65
2022-08-03T09:21:29.729Z,45.75
2022-08-03T09:22:07.706Z,44.96
2022-08-03T09:23:24.919Z,45.01
2022-08-03T09:24:16.396Z,45.72
2022-08-03T09:25:24.689Z,46.55
2022-08-03T09:26:09.131Z,49.11
2022-08-03T09:27:07.644Z,48.42
2022-08-03T09:28:07.650Z,47.04
2022-08-03T09:29:13.242Z,47.71
2022-08-03T09:30:07.611Z,47.09
2022-08-03T09:31:07.594Z,45.30
2022-08-03T09:32:07.642Z,45.67
2022-08-03T09:33:08.315Z,45.45
2022-08-03T09:34:07.585Z,44.65
2022-08-03T09:35:09.528Z,44.82
2022-08-03T09:36:07.521Z,45.04
2022-08-03T09:37:07.495Z,46.04
2022-08-03T09:38:12.702Z,46.46
2022-08-03T09:39:07.531Z,46.63
2022-08-03T09:40:08.351Z,45.65
2022-08-03T09:41:07.463Z,46.75
2022-08-03T09:42:07.505Z,46.83
2022-08-03T09:43:07.439Z,45.43
2022-08-03T09:44:07.412Z,45.92
2022-08-03T09:45:07.471Z,46.02
2022-08-03T09:46:07.529Z,45.92
2022-08-03T09:47:07.442Z,46.51
2022-08-03T09:48:07.374Z,44.55
2022-08-03T09:49:07.395Z,44.92
2022-08-03T09:50:07.342Z,44.23
2022-08-03T09:51:14.363Z,43.72
2022-08-03T09:52:38.063Z,43.41
2022-08-03T09:53:07.312Z,42.50
2022-08-03T09:54:15.080Z,43.27
2022-08-03T09:55:07.297Z,43.77
2022-08-03T09:56:34.774Z,44.21
2022-08-03T09:57:07.285Z,44.62
2022-08-03T09:58:07.289Z,45.21
2022-08-03T09:59:07.630Z,45.21
2022-08-03T10:00:08.441Z,45.02
2022-08-03T10:01:07.280Z,45.63
2022-08-03T10:02:07.224Z,47.42
2022-08-03T10:03:07.199Z,47.61
2022-08-03T10:04:07.198Z,46.61
2022-08-03T10:05:07.213Z,45.43
2022-08-03T10:06:07.175Z,45.06
2022-08-03T10:07:07.162Z,45.65
2022-08-03T10:08:07.110Z,45.55
2022-08-03T10:09:07.102Z,45.63
2022-08-03T10:10:30.346Z,44.43
2022-08-03T10:11:07.082Z,44.31
2022-08-03T10:12:07.079Z,45.56
2022-08-03T10:13:07.098Z,45.54
2022-08-03T10:14:07.178Z,44.95
2022-08-03T10:15:07.080Z,45.23
2022-08-03T10:16:28.805Z,43.98
2022-08-03T10:17:06.977Z,44.38
2022-08-03T10:18:07.041Z,45.39
2022-08-03T10:19:07.010Z,45.07
2022-08-03T10:20:06.983Z,44.88
2022-08-03T10:21:07.176Z,46.27
2022-08-03T10:22:06.978Z,45.88
2022-08-03T10:23:06.966Z,44.80
2022-08-03T10:24:06.933Z,45.19
2022-08-03T10:25:06.918Z,44.80
2022-08-03T10:26:06.932Z,44.90
2022-08-03T10:27:06.912Z,44.31
2022-08-03T10:28:06.878Z,44.38
2022-08-03T10:29:06.875Z,47.13
2022-08-03T10:30:06.864Z,44.98
2022-08-03T10:31:06.863Z,43.19
2022-08-03T10:32:06.844Z,43.19
2022-08-03T10:33:15.280Z,43.98
2022-08-03T10:34:06.835Z,45.76
2022-08-03T10:35:19.773Z,43.88
2022-08-03T10:36:06.776Z,43.19
2022-08-03T10:37:06.849Z,43.27
2022-08-03T10:38:06.735Z,42.66
2022-08-03T10:39:15.831Z,43.24
2022-08-03T10:40:06.739Z,44.20
2022-08-03T10:41:06.864Z,43.32
2022-08-03T10:42:14.492Z,42.83
2022-08-03T10:43:06.718Z,42.17
2022-08-03T10:44:06.670Z,43.46
2022-08-03T10:45:06.715Z,43.19
2022-08-03T10:46:06.688Z,42.80
2022-08-03T10:47:06.650Z,43.41
2022-08-03T10:48:06.622Z,43.41
2022-08-03T10:49:06.698Z,43.90
2022-08-03T10:50:06.653Z,44.09
2022-08-03T10:51:06.620Z,43.77
2022-08-03T10:52:13.015Z,44.19
2022-08-03T10:53:06.614Z,42.91
2022-08-03T10:54:06.561Z,44.68
2022-08-03T10:55:07.340Z,43.21
2022-08-03T10:56:06.525Z,44.76
2022-08-03T10:57:14.404Z,43.98
2022-08-03T10:58:11.041Z,42.90
2022-08-03T10:59:06.480Z,42.60
2022-08-03T11:00:06.527Z,42.82
2022-08-03T11:01:06.539Z,43.02
2022-08-03T11:02:06.436Z,43.80
2022-08-03T11:03:06.674Z,42.82
2022-08-03T11:04:11.068Z,43.02
2022-08-03T11:05:06.419Z,43.51
2022-08-03T11:06:06.410Z,43.68
2022-08-03T11:07:06.403Z,42.48
2022-08-03T11:08:06.376Z,41.80
2022-08-03T11:09:06.399Z,41.68
2022-08-03T11:10:10.420Z,41.07
2022-08-03T11:11:06.348Z,40.58
2022-08-03T11:12:06.336Z,41.35
2022-08-03T11:13:06.353Z,42.71
2022-08-03T11:14:06.313Z,40.78
2022-08-03T11:15:06.289Z,40.39
2022-08-03T11:16:07.835Z,40.58
2022-08-03T11:17:06.283Z,40.19
2022-08-03T11:18:06.247Z,41.46
2022-08-03T11:19:06.244Z,41.76
2022-08-03T11:20:06.218Z,41.49
2022-08-03T11:21:06.243Z,41.29
2022-08-03T11:22:06.211Z,41.29
2022-08-03T11:23:06.216Z,42.78
2022-08-03T11:24:06.856Z,43.07
2022-08-03T11:25:06.226Z,42.58
2022-08-03T11:26:06.146Z,42.29
2022-08-03T11:27:06.143Z,42.46
2022-08-03T11:28:06.166Z,42.66
2022-08-03T11:29:06.120Z,41.36
2022-08-03T11:30:06.124Z,42.35
2022-08-03T11:31:06.093Z,42.07
2022-08-03T11:32:06.102Z,42.27
2022-08-03T11:33:06.055Z,42.76
2022-08-03T11:34:06.089Z,41.88
2022-08-03T11:35:06.060Z,41.97
2022-08-03T11:36:06.019Z,41.07
2022-08-03T11:37:06.021Z,41.76
2022-08-03T11:38:06.717Z,41.66
2022-08-03T11:39:05.981Z,42.13
2022-08-03T11:40:06.042Z,41.74
2022-08-03T11:41:06.002Z,41.62
2022-08-03T11:42:05.981Z,41.91
2022-08-03T11:43:05.935Z,41.03
2022-08-03T11:44:05.990Z,40.95
2022-08-03T11:45:06.202Z,40.95
2022-08-03T11:46:05.985Z,41.64
2022-08-03T11:47:05.902Z,42.42
2022-08-03T11:48:05.862Z,41.83
2022-08-03T11:49:09.919Z,42.22
2022-08-03T11:50:05.866Z,41.17
2022-08-03T11:51:05.893Z,41.78
2022-08-03T11:52:05.845Z,42.07
2022-08-03T11:53:05.830Z,41.46
2022-08-03T11:54:05.790Z,41.86
2022-08-03T11:55:05.783Z,41.96
2022-08-03T11:56:05.812Z,41.17
2022-08-03T11:57:05.841Z,41.46
2022-08-03T11:59:01.335Z,41.88
2022-08-03T11:59:25.568Z,42.56
2022-08-03T12:00:05.733Z,42.44
2022-08-03T12:01:05.718Z,42.15
2022-08-03T12:02:05.722Z,41.44
2022-08-03T12:03:05.795Z,39.47
2022-08-03T12:04:05.675Z,40.74
2022-08-03T12:05:05.668Z,40.16
2022-08-03T12:06:05.675Z,40.16
2022-08-03T12:07:05.639Z,39.37
2022-08-03T12:08:06.941Z,39.65
2022-08-03T12:09:05.623Z,40.04
2022-08-03T12:10:05.618Z,39.94
2022-08-03T12:11:05.602Z,38.77
2022-08-03T12:12:05.602Z,39.04
2022-08-03T12:13:05.550Z,39.43
2022-08-03T12:14:48.538Z,39.82
2022-08-03T12:15:05.564Z,37.87
2022-08-03T12:16:05.538Z,37.77
2022-08-03T12:17:05.501Z,37.87
2022-08-03T12:18:05.528Z,39.55
2022-08-03T12:19:05.524Z,39.06
2022-08-03T12:20:05.460Z,40.14
2022-08-03T12:21:05.477Z,39.75
2022-08-03T12:22:05.455Z,39.75
2022-08-03T12:23:05.459Z,38.77
2022-08-03T12:24:05.479Z,40.50
2022-08-03T12:25:05.421Z,39.14
2022-08-03T12:26:05.431Z,39.31
2022-08-03T12:27:05.662Z,38.53
2022-08-03T12:28:05.396Z,37.85
2022-08-03T12:29:05.388Z,38.43
2022-08-03T12:30:05.376Z,38.92
2022-08-03T12:31:05.354Z,39.43
2022-08-03T12:32:05.333Z,39.26
2022-08-03T12:33:05.340Z,39.65
2022-08-03T12:34:05.318Z,40.72
2022-08-03T12:35:05.345Z,38.96
2022-08-03T12:36:05.269Z,38.65
2022-08-03T12:37:05.281Z,38.84
2022-08-03T12:38:05.267Z,39.72
2022-08-03T12:39:05.248Z,40.09
2022-08-03T12:40:09.966Z,38.63
2022-08-03T12:41:05.277Z,38.51
2022-08-03T12:42:05.219Z,39.00
2022-08-03T12:43:05.208Z,39.69
2022-08-03T12:44:05.199Z,38.71
2022-08-03T12:45:05.199Z,38.61
2022-08-03T12:46:05.210Z,38.51
2022-08-03T12:47:05.149Z,38.12
2022-08-03T12:48:05.154Z,38.32
2022-08-03T12:49:05.187Z,38.32
2022-08-03T12:50:05.201Z,38.22
2022-08-03T12:51:05.140Z,39.10
2022-08-03T12:52:07.632Z,38.22